createdAt,value
2023-05-06T00:00:06.664Z,10.25
2023-05-06T00:02:33.441Z,10.22
2023-05-06T00:05:00.131Z,10.20
2023-05-06T00:07:26.803Z,10.19
2023-05-06T00:09:53.426Z,10.19
2023-05-06T00:12:20.386Z,10.16
2023-05-06T00:14:46.964Z,10.10
2023-05-06T00:17:13.578Z,10.12
2023-05-06T00:19:40.214Z,10.12
2023-05-06T00:22:06.805Z,10.07
2023-05-06T00:24:33.379Z,9.98
2023-05-06T00:26:59.955Z,9.98
2023-05-06T00:29:26.626Z,9.96
2023-05-06T00:31:53.280Z,9.93
2023-05-06T00:34:21.305Z,9.93
2023-05-06T00:36:49.368Z,9.92
2023-05-06T00:39:17.646Z,9.94
2023-05-06T00:41:44.362Z,9.95
2023-05-06T00:44:12.724Z,9.96
2023-05-06T00:46:39.975Z,9.97
2023-05-06T00:49:06.636Z,9.98
2023-05-06T00:51:35.364Z,10.00
2023-05-06T00:54:05.139Z,10.04
2023-05-06T00:56:32.623Z,10.04
2023-05-06T00:58:59.822Z,10.01
2023-05-06T01:01:28.986Z,9.98
2023-05-06T01:03:58.483Z,9.98
2023-05-06T01:06:30.379Z,9.94
2023-05-06T01:09:25.082Z,9.89
2023-05-06T01:12:32.418Z,9.86
2023-05-06T01:15:03.932Z,9.84
2023-05-06T01:17:34.215Z,9.81
2023-05-06T01:20:06.448Z,9.79
2023-05-06T01:22:38.847Z,9.75
2023-05-06T01:25:07.314Z,9.71
2023-05-06T01:27:33.930Z,9.67
2023-05-06T01:30:01.377Z,9.64
2023-05-06T01:32:27.856Z,9.50
2023-05-06T01:35:11.357Z,9.50
2023-05-06T01:37:44.024Z,9.50
2023-05-06T01:40:12.830Z,9.49
2023-05-06T01:42:40.967Z,9.48
2023-05-06T01:45:11.803Z,9.47
2023-05-06T01:47:41.047Z,9.41
2023-05-06T01:50:08.536Z,9.42
2023-05-06T01:52:35.048Z,9.39
2023-05-06T01:55:01.630Z,9.38
2023-05-06T01:57:28.583Z,9.35
2023-05-06T01:59:56.883Z,9.30
2023-05-06T02:02:25.279Z,9.25
2023-05-06T02:04:53.473Z,9.17
2023-05-06T02:07:20.067Z,9.13
2023-05-06T02:09:46.695Z,9.13
2023-05-06T02:12:13.238Z,9.11
2023-05-06T02:14:39.786Z,9.04
2023-05-06T02:17:06.604Z,9.03
2023-05-06T02:19:33.292Z,9.02
2023-05-06T02:21:59.831Z,9.01
2023-05-06T02:24:26.997Z,9.02
2023-05-06T02:26:53.623Z,9.03
2023-05-06T02:29:21.889Z,9.01
2023-05-06T02:31:48.495Z,8.96
2023-05-06T02:34:16.400Z,8.94
2023-05-06T02:36:43.197Z,8.91
2023-05-06T02:39:09.761Z,8.91
2023-05-06T02:41:36.317Z,8.87
2023-05-06T02:44:02.841Z,8.87
2023-05-06T02:46:30.308Z,8.86
2023-05-06T02:48:56.903Z,8.86
2023-05-06T02:51:23.562Z,8.86
2023-05-06T02:53:50.126Z,8.85
2023-05-06T02:56:16.695Z,8.84
2023-05-06T02:58:43.250Z,8.80
2023-05-06T03:01:09.870Z,8.78
2023-05-06T03:03:36.481Z,8.77
2023-05-06T03:06:03.027Z,8.78
2023-05-06T03:08:29.664Z,8.79
2023-05-06T03:10:56.201Z,8.79
2023-05-06T03:13:24.921Z,8.78
2023-05-06T03:15:55.972Z,8.78
2023-05-06T03:18:22.779Z,8.75
2023-05-06T03:20:49.653Z,8.72
2023-05-06T03:23:16.357Z,8.74
2023-05-06T03:25:42.918Z,8.75
2023-05-06T03:28:09.461Z,8.75
2023-05-06T03:30:36.375Z,8.74
2023-05-06T03:33:03.022Z,8.75
2023-05-06T03:35:29.767Z,8.76
2023-05-06T03:37:56.319Z,8.75
2023-05-06T03:40:23.074Z,8.78
2023-05-06T03:42:49.821Z,8.80
2023-05-06T03:45:16.432Z,8.83
2023-05-06T03:47:43.048Z,8.84
2023-05-06T03:50:11.973Z,8.81
2023-05-06T03:52:40.681Z,8.80
2023-05-06T03:55:08.932Z,8.76
2023-05-06T03:57:35.665Z,8.72
2023-05-06T04:00:02.363Z,8.72
2023-05-06T04:02:29.430Z,8.71
2023-05-06T04:04:56.121Z,8.77
2023-05-06T04:07:22.735Z,8.81
2023-05-06T04:09:49.659Z,8.82
2023-05-06T04:12:17.874Z,8.82
2023-05-06T04:14:46.349Z,8.84
2023-05-06T04:17:14.200Z,8.84
2023-05-06T04:19:40.786Z,8.72
2023-05-06T04:22:07.391Z,8.73
2023-05-06T04:24:33.928Z,8.75
2023-05-06T04:27:00.743Z,8.80
2023-05-06T04:29:27.333Z,8.84
2023-05-06T04:31:54.254Z,8.87
2023-05-06T04:34:21.033Z,8.91
2023-05-06T04:36:47.925Z,9.00
2023-05-06T04:39:14.610Z,9.03
2023-05-06T04:41:41.854Z,9.06
2023-05-06T04:44:08.471Z,9.06
2023-05-06T04:46:35.086Z,9.11
2023-05-06T04:49:01.673Z,9.17
2023-05-06T04:51:30.182Z,9.23
2023-05-06T04:53:58.222Z,9.27
2023-05-06T04:56:26.157Z,9.30
2023-05-06T04:58:52.714Z,9.34
2023-05-06T05:01:19.589Z,9.41
2023-05-06T05:03:46.271Z,9.41
2023-05-06T05:06:15.002Z,9.46
2023-05-06T05:08:41.680Z,9.46
2023-05-06T05:11:09.356Z,9.51
2023-05-06T05:13:38.132Z,9.55
2023-05-06T05:16:05.183Z,9.54
2023-05-06T05:18:31.765Z,9.53
2023-05-06T05:20:58.474Z,9.61
2023-05-06T05:23:25.131Z,9.58
2023-05-06T05:25:51.706Z,9.65
2023-05-06T05:28:18.342Z,9.67
2023-05-06T05:30:46.973Z,9.72
2023-05-06T05:33:13.708Z,9.80
2023-05-06T05:35:41.882Z,9.88
2023-05-06T05:38:10.207Z,9.88
2023-05-06T05:40:37.230Z,9.85
2023-05-06T05:43:04.018Z,10.00
2023-05-06T05:45:32.266Z,10.03
2023-05-06T05:48:02.813Z,10.05
2023-05-06T05:50:29.405Z,10.05
2023-05-06T05:52:56.069Z,10.08
2023-05-06T05:55:22.660Z,10.13
2023-05-06T05:57:49.259Z,10.19
2023-05-06T06:00:16.734Z,10.25
2023-05-06T06:02:43.401Z,10.34
2023-05-06T06:05:10.359Z,10.42
2023-05-06T06:07:37.473Z,10.55
2023-05-06T06:10:04.505Z,10.62
2023-05-06T06:12:31.147Z,10.61
2023-05-06T06:14:57.747Z,10.71
2023-05-06T06:17:27.306Z,10.80
2023-05-06T06:19:57.300Z,10.85
2023-05-06T06:22:24.303Z,10.88
2023-05-06T06:24:53.692Z,10.93
2023-05-06T06:27:20.529Z,10.91
2023-05-06T06:29:50.428Z,10.99
2023-05-06T06:32:17.027Z,11.02
2023-05-06T06:34:44.294Z,10.91
2023-05-06T06:37:11.347Z,10.99
2023-05-06T06:39:38.210Z,11.08
2023-05-06T06:42:06.913Z,11.19
2023-05-06T06:44:36.812Z,11.26
2023-05-06T06:47:03.478Z,11.42
2023-05-06T06:49:32.994Z,11.46
2023-05-06T06:51:59.650Z,11.47
2023-05-06T06:54:26.370Z,11.53
2023-05-06T06:56:56.361Z,11.57
2023-05-06T06:59:23.392Z,11.67
2023-05-06T07:01:51.865Z,11.58
2023-05-06T07:04:18.508Z,11.79
2023-05-06T07:06:45.805Z,11.87
2023-05-06T07:09:13.384Z,11.88
2023-05-06T07:11:40.099Z,11.99
2023-05-06T07:14:07.177Z,12.11
2023-05-06T07:16:35.450Z,12.31
2023-05-06T07:19:02.054Z,12.48
2023-05-06T07:21:28.807Z,12.76
2023-05-06T07:23:55.663Z,12.80
2023-05-06T07:26:22.647Z,12.89
2023-05-06T07:28:49.239Z,13.05
2023-05-06T07:31:16.362Z,13.15
2023-05-06T07:33:44.733Z,13.36
2023-05-06T07:36:11.359Z,13.59
2023-05-06T07:38:39.336Z,13.68
2023-05-06T07:41:06.325Z,13.91
2023-05-06T07:43:32.957Z,13.96
2023-05-06T07:46:04.368Z,14.14
2023-05-06T07:48:32.714Z,14.38
2023-05-06T07:51:00.988Z,14.81
2023-05-06T07:53:27.597Z,15.07
2023-05-06T07:55:57.170Z,14.83
2023-05-06T07:58:24.066Z,14.76
2023-05-06T08:00:50.838Z,15.06
2023-05-06T08:03:18.254Z,15.00
2023-05-06T08:05:45.264Z,15.05
2023-05-06T08:08:12.022Z,15.57
2023-05-06T08:10:38.848Z,16.16
2023-05-06T08:13:05.595Z,16.64
2023-05-06T08:15:32.721Z,16.42
2023-05-06T08:18:07.079Z,16.49
2023-05-06T08:20:41.002Z,16.86
2023-05-06T08:23:07.758Z,16.96
2023-05-06T08:25:34.333Z,17.18
2023-05-06T08:28:01.059Z,17.05
2023-05-06T08:30:30.010Z,17.76
2023-05-06T08:32:57.635Z,18.57
2023-05-06T08:35:26.014Z,18.96
2023-05-06T08:37:52.627Z,19.21
2023-05-06T08:40:21.750Z,18.77
2023-05-06T08:42:50.407Z,19.09
2023-05-06T08:45:19.385Z,18.98
2023-05-06T08:47:49.803Z,19.40
2023-05-06T08:50:18.383Z,19.34
2023-05-06T08:52:47.797Z,19.28
2023-05-06T08:55:14.705Z,19.53
2023-05-06T08:57:43.415Z,19.46
2023-05-06T09:00:11.324Z,19.62
2023-05-06T09:02:40.543Z,19.28
2023-05-06T09:05:10.594Z,19.46
2023-05-06T09:07:38.597Z,20.14
2023-05-06T09:10:07.994Z,20.46
2023-05-06T09:12:38.001Z,20.84
2023-05-06T09:15:06.888Z,20.45
2023-05-06T09:17:34.387Z,20.67
2023-05-06T09:20:02.915Z,20.63
2023-05-06T09:22:31.211Z,20.99
2023-05-06T09:24:58.540Z,21.04
2023-05-06T09:27:33.408Z,20.75
2023-05-06T09:30:01.826Z,20.99
2023-05-06T09:32:29.557Z,21.18
2023-05-06T09:34:57.895Z,21.57
2023-05-06T09:37:26.517Z,22.16
2023-05-06T09:39:58.288Z,22.45
2023-05-06T09:42:26.531Z,22.28
2023-05-06T09:45:01.292Z,22.13
2023-05-06T09:47:34.635Z,21.97
2023-05-06T09:50:03.601Z,21.39
2023-05-06T09:52:31.580Z,21.23
2023-05-06T09:54:59.992Z,21.54
2023-05-06T09:57:29.637Z,22.21
2023-05-06T10:00:00.893Z,22.78
2023-05-06T10:02:30.101Z,23.24
2023-05-06T10:05:06.039Z,23.25
2023-05-06T10:07:33.879Z,23.12
2023-05-06T10:10:03.600Z,23.50
2023-05-06T10:12:31.686Z,23.46
2023-05-06T10:14:59.908Z,23.56
2023-05-06T10:17:29.612Z,23.82
2023-05-06T10:19:58.899Z,23.69
2023-05-06T10:22:54.349Z,23.71
2023-05-06T10:25:33.896Z,23.77
2023-05-06T10:28:01.524Z,23.14
2023-05-06T10:30:30.300Z,23.48
2023-05-06T10:33:01.418Z,23.55
2023-05-06T10:36:20.856Z,23.67
2023-05-06T10:38:55.026Z,23.09
2023-05-06T10:41:28.245Z,23.12
2023-05-06T10:43:57.718Z,22.43
2023-05-06T10:46:29.055Z,22.29
2023-05-06T10:49:14.616Z,22.35
2023-05-06T10:51:42.189Z,22.95
2023-05-06T10:54:10.083Z,23.59
2023-05-06T10:56:41.078Z,23.85
2023-05-06T10:59:10.460Z,23.67
2023-05-06T11:01:39.599Z,23.85
2023-05-06T11:04:12.798Z,24.20
2023-05-06T11:06:44.770Z,24.70
2023-05-06T11:09:27.648Z,24.30
2023-05-06T11:12:05.821Z,23.96
2023-05-06T11:14:36.235Z,24.38
2023-05-06T11:17:09.139Z,24.77
2023-05-06T11:19:37.728Z,24.61
2023-05-06T11:22:07.006Z,24.39
2023-05-06T11:24:41.938Z,24.46
2023-05-06T11:27:11.175Z,24.50
2023-05-06T11:29:39.178Z,24.98
2023-05-06T11:32:18.899Z,25.47
2023-05-06T11:34:46.969Z,-147.77
2023-05-06T11:37:26.208Z,-147.77
2023-05-06T11:39:54.474Z,-147.77
2023-05-06T11:42:26.521Z,-147.77
2023-05-06T11:45:00.613Z,-147.77
2023-05-06T11:47:28.354Z,-147.77
2023-05-06T11:49:56.850Z,-147.77
2023-05-06T11:52:25.201Z,-147.77
2023-05-06T11:54:54.871Z,-147.77
2023-05-06T11:57:23.979Z,-147.77
2023-05-06T11:59:54.368Z,-147.77
2023-05-06T12:02:21.449Z,-147.77
2023-05-06T12:04:50.090Z,-147.77
2023-05-06T12:07:17.408Z,-147.77
2023-05-06T12:09:47.747Z,-147.77
2023-05-06T12:12:24.095Z,-147.77
2023-05-06T12:14:52.977Z,-147.77
2023-05-06T12:17:21.188Z,-147.77
2023-05-06T12:19:49.436Z,-147.77
2023-05-06T12:22:27.095Z,-147.77
2023-05-06T12:24:53.905Z,-147.77
2023-05-06T12:27:36.346Z,-147.77
2023-05-06T12:30:04.996Z,23.92
2023-05-06T12:32:34.488Z,23.78
2023-05-06T12:35:09.150Z,23.78
2023-05-06T12:37:35.873Z,23.63
2023-05-06T12:40:02.616Z,23.83
2023-05-06T12:42:29.353Z,23.95
2023-05-06T12:44:56.307Z,24.42
2023-05-06T12:47:28.205Z,25.00
2023-05-06T12:49:59.206Z,24.98
2023-05-06T12:52:28.843Z,25.27
2023-05-06T12:54:56.268Z,25.04
2023-05-06T12:57:23.196Z,25.45
2023-05-06T12:59:50.200Z,25.60
2023-05-06T13:02:17.019Z,25.63
2023-05-06T13:04:45.934Z,25.59
2023-05-06T13:07:12.717Z,25.70
2023-05-06T13:09:40.542Z,-147.77
2023-05-06T13:12:55.970Z,-147.77
2023-05-06T13:15:39.659Z,-147.77
2023-05-06T13:18:06.866Z,-147.77
2023-05-06T13:20:33.986Z,-147.77
2023-05-06T13:23:01.618Z,26.38
2023-05-06T13:25:28.310Z,26.14
2023-05-06T13:27:54.905Z,25.95
2023-05-06T13:30:22.314Z,25.66
2023-05-06T13:32:49.393Z,25.79
2023-05-06T13:35:17.850Z,25.83
2023-05-06T13:37:44.463Z,25.55
2023-05-06T13:40:12.095Z,25.43
2023-05-06T13:42:38.901Z,25.19
2023-05-06T13:45:06.345Z,-147.77
2023-05-06T13:47:34.757Z,-147.77
2023-05-06T13:50:03.704Z,-147.77
2023-05-06T13:52:30.432Z,-147.77
2023-05-06T13:54:58.050Z,-147.77
2023-05-06T13:57:26.752Z,-147.77
2023-05-06T13:59:54.893Z,-147.77
2023-05-06T14:02:22.061Z,-147.77
2023-05-06T14:04:48.770Z,-147.77
2023-05-06T14:07:15.716Z,-147.77
2023-05-06T14:09:42.383Z,-147.77
2023-05-06T14:12:09.019Z,-147.77
2023-05-06T14:14:35.705Z,-147.77
2023-05-06T14:17:02.329Z,-147.77
2023-05-06T14:19:30.117Z,-147.77
2023-05-06T14:21:56.996Z,-147.77
2023-05-06T14:24:23.755Z,-147.77
2023-05-06T14:26:50.512Z,-147.77
2023-05-06T14:29:17.175Z,-147.77
2023-05-06T14:31:45.366Z,-147.77
2023-05-06T14:34:12.073Z,-147.77
2023-05-06T14:36:38.680Z,-147.77
2023-05-06T14:39:05.381Z,-147.77
2023-05-06T14:41:32.082Z,-147.77
2023-05-06T14:43:58.967Z,-147.77
2023-05-06T14:46:28.585Z,-147.77
2023-05-06T14:48:57.813Z,-147.77
2023-05-06T14:51:24.425Z,-147.77
2023-05-06T14:53:51.840Z,-147.77
2023-05-06T14:56:18.585Z,24.04
2023-05-06T14:58:45.394Z,23.96
2023-05-06T15:01:12.510Z,23.87
2023-05-06T15:03:39.458Z,23.72
2023-05-06T15:08:40.380Z,23.27
2023-05-06T15:11:06.973Z,23.41
2023-05-06T15:13:33.729Z,23.44
2023-05-06T15:16:00.405Z,23.41
2023-05-06T15:18:26.979Z,23.27
2023-05-06T15:20:55.027Z,23.27
2023-05-06T15:23:22.394Z,23.25
2023-05-06T15:25:48.971Z,23.28
2023-05-06T15:28:16.155Z,23.20
2023-05-06T15:30:42.749Z,23.12
2023-05-06T15:33:09.360Z,23.08
2023-05-06T15:35:36.343Z,23.06
2023-05-06T15:38:04.064Z,22.97
2023-05-06T15:40:31.210Z,22.78
2023-05-06T15:42:58.791Z,22.80
2023-05-06T15:45:26.017Z,22.81
2023-05-06T15:47:54.117Z,22.69
2023-05-06T15:50:32.439Z,22.62
2023-05-06T15:52:59.906Z,22.53
2023-05-06T15:55:26.727Z,22.50
2023-05-06T15:57:54.935Z,22.42
2023-05-06T16:00:22.384Z,22.35
2023-05-06T16:02:49.342Z,22.23
2023-05-06T16:05:16.275Z,22.14
2023-05-06T16:07:43.513Z,22.15
2023-05-06T16:10:10.901Z,22.11
2023-05-06T16:12:38.452Z,22.06
2023-05-06T16:15:05.956Z,22.16
2023-05-06T16:17:37.533Z,22.17
2023-05-06T16:20:05.629Z,22.20
2023-05-06T16:41:28.432Z,21.92
2023-05-06T16:43:55.015Z,21.85
2023-05-06T16:46:24.162Z,21.80
2023-05-06T16:48:54.563Z,21.82
2023-05-06T16:51:21.241Z,21.70
2023-05-06T16:53:48.072Z,21.67
2023-05-06T16:56:14.747Z,21.65
2023-05-06T16:58:42.583Z,21.53
2023-05-06T17:01:09.642Z,21.45
2023-05-06T17:03:40.708Z,21.43
2023-05-06T17:06:07.835Z,21.40
2023-05-06T17:08:36.295Z,21.39
2023-05-06T17:11:06.387Z,21.37
2023-05-06T17:13:33.388Z,21.26
2023-05-06T17:16:00.038Z,21.22
2023-05-06T17:18:26.681Z,21.18
2023-05-06T17:20:56.522Z,21.16
2023-05-06T17:23:23.943Z,21.09
2023-05-06T17:25:51.216Z,21.05
2023-05-06T17:28:18.821Z,20.99
2023-05-06T17:30:45.978Z,20.95
2023-05-06T17:33:12.933Z,20.89
2023-05-06T17:35:39.673Z,20.80
2023-05-06T17:38:06.452Z,20.77
2023-05-06T17:40:33.159Z,20.69
2023-05-06T17:42:59.747Z,20.65
2023-05-06T17:45:28.353Z,20.56
2023-05-06T17:47:56.393Z,20.50
2023-05-06T17:50:23.297Z,20.43
2023-05-06T17:52:52.369Z,20.34
2023-05-06T17:55:21.585Z,20.24
2023-05-06T17:57:48.648Z,20.15
2023-05-06T18:00:16.623Z,20.12
2023-05-06T18:02:44.052Z,20.08
2023-05-06T18:05:11.700Z,20.02
2023-05-06T18:07:38.692Z,19.94
2023-05-06T18:10:06.220Z,19.84
2023-05-06T18:12:32.816Z,19.76
2023-05-06T18:15:00.264Z,19.68
2023-05-06T18:17:26.931Z,19.61
2023-05-06T18:19:53.597Z,19.52
2023-05-06T18:22:20.194Z,19.47
2023-05-06T18:24:46.857Z,19.40
2023-05-06T18:27:13.505Z,19.24
2023-05-06T18:29:41.396Z,19.17
2023-05-06T18:32:08.394Z,19.07
2023-05-06T18:34:35.313Z,18.99
2023-05-06T18:37:01.914Z,18.91
2023-05-06T18:39:28.547Z,18.80
2023-05-06T18:41:55.196Z,18.70
2023-05-06T18:44:21.791Z,18.62
2023-05-06T18:46:48.477Z,18.54
2023-05-06T18:49:15.188Z,18.43
2023-05-06T18:51:41.820Z,18.35
2023-05-06T18:54:08.422Z,18.29
2023-05-06T18:56:36.750Z,18.24
2023-05-06T18:59:03.587Z,18.16
2023-05-06T19:01:30.337Z,18.08
2023-05-06T19:03:57.136Z,17.97
2023-05-06T19:06:23.733Z,17.90
2023-05-06T19:08:50.634Z,17.85
2023-05-06T19:11:21.203Z,17.82
2023-05-06T19:13:47.830Z,17.76
2023-05-06T19:16:14.574Z,17.68
2023-05-06T19:18:41.305Z,17.56
2023-05-06T19:21:11.829Z,17.49
2023-05-06T19:23:38.504Z,17.46
2023-05-06T19:26:06.771Z,17.36
2023-05-06T19:28:34.381Z,17.32
2023-05-06T19:31:01.430Z,17.25
2023-05-06T19:33:28.306Z,17.20
2023-05-06T19:35:54.898Z,17.18
2023-05-06T19:38:21.659Z,17.16
2023-05-06T19:40:48.251Z,17.08
2023-05-06T19:43:14.834Z,17.01
2023-05-06T19:45:42.036Z,16.96
2023-05-06T19:48:08.984Z,16.88
2023-05-06T19:50:36.753Z,16.85
2023-05-06T19:53:03.729Z,16.79
2023-05-06T19:55:30.930Z,16.68
2023-05-06T19:57:57.819Z,16.63
2023-05-06T20:00:27.256Z,16.58
2023-05-06T20:02:56.360Z,16.55
2023-05-06T20:05:23.226Z,16.48
2023-05-06T20:07:50.983Z,16.45
2023-05-06T20:10:17.684Z,16.42
2023-05-06T20:12:44.245Z,16.41
2023-05-06T20:15:11.224Z,16.38
2023-05-06T20:17:38.226Z,16.32
2023-05-06T20:20:09.568Z,16.31
2023-05-06T20:22:40.711Z,16.26
2023-05-06T20:25:17.415Z,16.26
2023-05-06T20:27:45.364Z,16.22
2023-05-06T20:30:12.331Z,16.18
2023-05-06T20:32:40.376Z,16.19
2023-05-06T20:35:07.587Z,16.16
2023-05-06T20:37:35.423Z,16.13
2023-05-06T20:40:04.531Z,16.07
2023-05-06T20:42:31.604Z,16.05
2023-05-06T20:44:58.837Z,16.01
2023-05-06T20:47:25.687Z,15.90
2023-05-06T20:49:52.374Z,15.81
2023-05-06T20:52:19.105Z,15.77
2023-05-06T20:54:45.698Z,15.73
2023-05-06T20:57:14.622Z,15.71
2023-05-06T20:59:41.377Z,15.67
2023-05-06T21:02:07.991Z,15.59
2023-05-06T21:04:34.781Z,15.57
2023-05-06T21:07:01.414Z,15.48
2023-05-06T21:09:28.700Z,15.48
2023-05-06T21:11:56.442Z,15.44
2023-05-06T21:14:24.930Z,15.40
2023-05-06T21:16:52.594Z,15.36
2023-05-06T21:19:19.611Z,15.33
2023-05-06T21:21:46.378Z,15.29
2023-05-06T21:24:13.121Z,15.24
2023-05-06T21:26:40.201Z,15.20
2023-05-06T21:29:06.794Z,15.15
2023-05-06T21:31:33.569Z,15.08
2023-05-06T21:34:00.472Z,15.06
2023-05-06T21:36:27.279Z,14.94
2023-05-06T21:39:12.126Z,14.89
2023-05-06T21:41:39.769Z,14.81
2023-05-06T21:44:08.234Z,14.77
2023-05-06T21:46:35.305Z,14.71
2023-05-06T21:49:02.020Z,14.72
2023-05-06T21:51:32.291Z,14.65
2023-05-06T21:53:59.275Z,14.64
2023-05-06T21:56:25.883Z,14.63
2023-05-06T21:58:55.823Z,14.50
2023-05-06T22:01:23.542Z,14.41
2023-05-06T22:03:50.357Z,14.29
2023-05-06T22:06:17.038Z,14.22
2023-05-06T22:08:43.715Z,14.19
2023-05-06T22:11:10.947Z,14.23
2023-05-06T22:13:37.545Z,14.25
2023-05-06T22:16:04.473Z,14.18
2023-05-06T22:18:32.109Z,14.22
2023-05-06T22:21:00.138Z,14.16
2023-05-06T22:23:28.123Z,14.17
2023-05-06T22:25:54.731Z,14.13
2023-05-06T22:28:21.686Z,14.13
2023-05-06T22:30:48.425Z,14.10
2023-05-06T22:33:15.039Z,14.10
2023-05-06T22:35:41.645Z,14.06
2023-05-06T22:38:08.584Z,14.09
2023-05-06T22:40:35.234Z,14.06
2023-05-06T22:43:01.830Z,14.07
2023-05-06T22:45:28.707Z,14.05
2023-05-06T22:47:55.954Z,14.03
2023-05-06T22:50:22.630Z,13.97
2023-05-06T22:52:49.256Z,13.97
2023-05-06T22:55:16.167Z,13.96
2023-05-06T22:57:42.819Z,13.94
2023-05-06T23:00:12.473Z,13.88
2023-05-06T23:02:39.822Z,13.86
2023-05-06T23:05:06.645Z,13.81
2023-05-06T23:07:33.557Z,13.70
2023-05-06T23:10:00.609Z,13.69
2023-05-06T23:12:28.051Z,13.66
2023-05-06T23:14:54.661Z,13.59
2023-05-06T23:17:21.267Z,13.58
2023-05-06T23:19:47.923Z,13.56
2023-05-06T23:22:14.591Z,13.55
2023-05-06T23:24:42.261Z,13.51
2023-05-06T23:27:08.920Z,13.48
2023-05-06T23:29:35.552Z,13.47
2023-05-06T23:32:02.904Z,13.39
2023-05-06T23:34:29.505Z,13.32
2023-05-06T23:36:56.604Z,13.26
2023-05-06T23:39:23.298Z,13.20
2023-05-06T23:41:49.910Z,13.17
2023-05-06T23:44:16.843Z,13.09
2023-05-06T23:46:43.512Z,13.08
2023-05-06T23:49:10.376Z,12.98
2023-05-06T23:51:36.995Z,12.89
2023-05-06T23:54:03.677Z,12.86
2023-05-06T23:56:30.286Z,12.78
2023-05-06T23:58:56.899Z,12.75
